Time;durP1;ratioP1;P1;durP2;ratioP2;P2;SDS_P1;SDS_P2;PMS_P1;PMS_P2;Temp;Humidity;BMP_temperature;BMP_pressure;BME280_temperature;BME280_humidity;BME280_pressure;Samples;Min_cycle;Max_cycle;Signal;HPM_P1;HPM_P2
2022/12/28 00:00:21;;;;;;;12.05;6.20;;;;;;;;;;5082182;28;20043;-77
2022/12/28 00:02:47;;;;;;;8.10;5.35;;;;;;;;;;5065543;28;20089;-77
2022/12/28 00:05:13;;;;;;;12.15;6.32;;;;;;;;;;5066552;28;20036;-77
2022/12/28 00:07:39;;;;;;;10.40;6.13;;;;;;;;;;5065602;28;20051;-77
2022/12/28 00:10:06;;;;;;;11.77;6.40;;;;;;;;;;5063188;28;20040;-77
2022/12/28 00:12:32;;;;;;;10.43;6.45;;;;;;;;;;5069681;28;20037;-77
2022/12/28 00:14:58;;;;;;;11.40;6.85;;;;;;;;;;5064513;28;20462;-77
2022/12/28 00:17:27;;;;;;;10.52;5.72;;;;;;;;;;5067580;28;20056;-77
2022/12/28 00:19:53;;;;;;;12.07;6.47;;;;;;;;;;5062434;28;20051;-77
2022/12/28 00:22:19;;;;;;;21.10;6.65;;;;;;;;;;5066198;28;20052;-78
2022/12/28 00:24:45;;;;;;;13.02;6.85;;;;;;;;;;5066463;28;20044;-77
2022/12/28 00:27:11;;;;;;;10.43;6.03;;;;;;;;;;5064424;28;20037;-77
2022/12/28 00:29:37;;;;;;;12.38;6.43;;;;;;;;;;5065970;28;20507;-77
2022/12/28 00:32:03;;;;;;;13.00;5.90;;;;;;;;;;5062792;28;20052;-77
2022/12/28 00:34:29;;;;;;;10.50;6.28;;;;;;;;;;5067935;28;20040;-77
2022/12/28 00:36:56;;;;;;;13.48;6.72;;;;;;;;;;5067075;28;20043;-77
2022/12/28 00:39:22;;;;;;;11.07;6.40;;;;;;;;;;5064239;28;20044;-77
2022/12/28 00:41:48;;;;;;;12.07;6.30;;;;;;;;;;5067603;28;20037;-77
2022/12/28 00:44:14;;;;;;;11.13;7.10;;;;;;;;;;5067746;28;20047;-77
2022/12/28 00:46:40;;;;;;;7.22;5.72;;;;;;;;;;5066302;28;20052;-77
2022/12/28 00:49:06;;;;;;;12.40;6.85;;;;;;;;;;5071472;28;20180;-77
2022/12/28 00:51:32;;;;;;;11.32;6.13;;;;;;;;;;5066801;28;20080;-77
2022/12/28 00:53:58;;;;;;;10.48;5.90;;;;;;;;;;5069901;28;20121;-77
2022/12/28 00:56:24;;;;;;;13.30;7.28;;;;;;;;;;5068833;28;20041;-77
2022/12/28 00:58:50;;;;;;;11.23;6.57;;;;;;;;;;5070702;28;20063;-77
2022/12/28 01:01:18;;;;;;;10.60;6.97;;;;;;;;;;5064765;28;20047;-77
2022/12/28 01:03:44;;;;;;;9.43;6.70;;;;;;;;;;5069031;28;20040;-77
2022/12/28 01:06:11;;;;;;;13.75;7.40;;;;;;;;;;5061317;28;20045;-77
2022/12/28 01:08:37;;;;;;;11.82;7.75;;;;;;;;;;5066334;28;20032;-77
2022/12/28 01:11:11;;;;;;;12.45;7.18;;;;;;;;;;5063928;28;20048;-77
2022/12/28 01:13:37;;;;;;;15.80;8.02;;;;;;;;;;5071727;28;20044;-77
2022/12/28 01:16:13;;;;;;;13.95;9.13;;;;;;;;;;5070887;28;20044;-77
2022/12/28 01:18:39;;;;;;;12.98;7.82;;;;;;;;;;5068167;28;20055;-77
2022/12/28 01:21:15;;;;;;;9.57;6.47;;;;;;;;;;5063885;28;20045;-77
2022/12/28 01:23:41;;;;;;;12.48;8.57;;;;;;;;;;5068088;28;20044;-77
2022/12/28 01:26:07;;;;;;;12.30;7.95;;;;;;;;;;5069553;28;20047;-77
2022/12/28 01:28:34;;;;;;;12.48;7.60;;;;;;;;;;5066005;28;20037;-77
2022/12/28 01:31:07;;;;;;;14.15;9.35;;;;;;;;;;5069774;28;20136;-78
2022/12/28 01:33:33;;;;;;;11.65;7.85;;;;;;;;;;5068932;28;20038;-77
2022/12/28 01:35:59;;;;;;;14.45;8.55;;;;;;;;;;5069911;28;20044;-77
2022/12/28 01:38:25;;;;;;;15.20;8.25;;;;;;;;;;5070631;28;20060;-77
2022/12/28 01:40:51;;;;;;;14.85;9.35;;;;;;;;;;5071257;28;20083;-77
2022/12/28 01:43:17;;;;;;;11.57;8.38;;;;;;;;;;5070250;28;20051;-77
2022/12/28 01:45:47;;;;;;;14.07;9.90;;;;;;;;;;5067215;28;20496;-77
2022/12/28 01:48:17;;;;;;;16.60;9.60;;;;;;;;;;5069839;28;20110;-77
2022/12/28 01:50:43;;;;;;;14.73;9.77;;;;;;;;;;5068795;28;20052;-77
2022/12/28 01:53:10;;;;;;;13.30;9.05;;;;;;;;;;5068289;28;20496;-76
2022/12/28 01:55:39;;;;;;;16.90;10.98;;;;;;;;;;5068888;28;20044;-77
2022/12/28 01:58:08;;;;;;;15.82;9.57;;;;;;;;;;5062549;28;20048;-77
2022/12/28 02:00:34;;;;;;;18.77;11.75;;;;;;;;;;5068294;28;20044;-77
2022/12/28 02:03:03;;;;;;;14.93;9.70;;;;;;;;;;5067350;28;20137;-77
2022/12/28 02:05:33;;;;;;;14.95;10.10;;;;;;;;;;5067788;28;20044;-77
2022/12/28 02:08:05;;;;;;;13.98;10.18;;;;;;;;;;5064443;28;20571;-77
2022/12/28 02:10:32;;;;;;;16.10;10.38;;;;;;;;;;5069963;28;20399;-77
2022/12/28 02:12:58;;;;;;;18.70;10.93;;;;;;;;;;5070912;28;20128;-77
2022/12/28 02:15:24;;;;;;;15.77;10.60;;;;;;;;;;5067597;28;20569;-77
2022/12/28 02:17:51;;;;;;;18.70;12.02;;;;;;;;;;5067960;28;20037;-77
2022/12/28 02:20:17;;;;;;;18.15;11.90;;;;;;;;;;5069782;28;20048;-77
2022/12/28 02:22:52;;;;;;;16.88;10.77;;;;;;;;;;5067740;28;20530;-77
2022/12/28 02:25:21;;;;;;;19.45;12.90;;;;;;;;;;5068552;28;20045;-77
2022/12/28 02:28:07;;;;;;;17.40;11.77;;;;;;;;;;5058636;28;20052;-77
2022/12/28 02:30:35;;;;;;;18.90;12.02;;;;;;;;;;5069721;28;20039;-77
2022/12/28 02:33:04;;;;;;;16.45;12.05;;;;;;;;;;5069557;28;20044;-77
2022/12/28 02:35:39;;;;;;;17.10;11.40;;;;;;;;;;5069085;28;20052;-77
2022/12/28 02:38:05;;;;;;;17.83;12.73;;;;;;;;;;5076001;28;20416;-77
2022/12/28 02:40:37;;;;;;;18.02;11.32;;;;;;;;;;5068417;28;20116;-77
2022/12/28 02:43:04;;;;;;;14.88;10.65;;;;;;;;;;5066624;28;20049;-77
2022/12/28 02:51:04;;;;;;;15.75;10.93;;;;;;;;;;5064776;28;20087;-77
2022/12/28 02:53:44;;;;;;;16.85;11.85;;;;;;;;;;5067713;28;20048;-77
2022/12/28 02:56:23;;;;;;;20.85;13.15;;;;;;;;;;5059935;28;20123;-77
2022/12/28 02:58:58;;;;;;;18.52;12.02;;;;;;;;;;5059539;28;20040;-77
2022/12/28 03:01:30;;;;;;;19.40;11.93;;;;;;;;;;5064245;28;20040;-77
2022/12/28 03:04:09;;;;;;;18.90;12.30;;;;;;;;;;5060393;28;20071;-76
2022/12/28 03:09:33;;;;;;;18.17;10.02;;;;;;;;;;5067332;28;20099;-75
2022/12/28 03:12:12;;;;;;;18.88;12.38;;;;;;;;;;5066914;28;20743;-76
2022/12/28 03:14:42;;;;;;;18.17;12.05;;;;;;;;;;5066124;28;20166;-75
2022/12/28 03:31:09;;;;;;;21.55;12.80;;;;;;;;;;5059115;28;20385;-75
2022/12/28 03:33:38;;;;;;;18.63;12.55;;;;;;;;;;5060039;28;20044;-76
2022/12/28 03:36:25;;;;;;;17.15;11.10;;;;;;;;;;5065046;28;20040;-75
2022/12/28 03:38:54;;;;;;;19.15;12.18;;;;;;;;;;5065804;28;20557;-75
2022/12/28 03:41:28;;;;;;;17.67;12.40;;;;;;;;;;5060674;28;20397;-75
2022/12/28 03:43:56;;;;;;;18.52;11.00;;;;;;;;;;5066994;28;20039;-75
2022/12/28 03:46:36;;;;;;;20.83;12.05;;;;;;;;;;5063422;28;20040;-75
2022/12/28 03:49:02;;;;;;;19.08;11.80;;;;;;;;;;5067656;28;20060;-75
2022/12/28 03:51:30;;;;;;;20.60;11.88;;;;;;;;;;5066152;28;20508;-75
2022/12/28 03:53:56;;;;;;;17.67;11.95;;;;;;;;;;5066841;28;20059;-75
2022/12/28 03:56:24;;;;;;;16.83;11.25;;;;;;;;;;5064821;28;20044;-75
2022/12/28 03:58:50;;;;;;;17.65;10.82;;;;;;;;;;5067272;28;20063;-75
2022/12/28 04:01:16;;;;;;;13.88;9.27;;;;;;;;;;5063042;28;20044;-76
2022/12/28 04:03:45;;;;;;;15.65;8.95;;;;;;;;;;5065409;28;20040;-75
2022/12/28 04:06:12;;;;;;;14.48;9.07;;;;;;;;;;5059253;28;20502;-75
2022/12/28 04:08:38;;;;;;;18.25;9.05;;;;;;;;;;5064928;28;20072;-75
2022/12/28 04:11:04;;;;;;;22.02;9.32;;;;;;;;;;5068426;28;20056;-76
2022/12/28 04:13:31;;;;;;;13.23;8.63;;;;;;;;;;5065617;28;20070;-75
2022/12/28 04:15:57;;;;;;;14.20;8.65;;;;;;;;;;5067316;28;20115;-76
2022/12/28 04:18:23;;;;;;;12.13;7.30;;;;;;;;;;5065870;28;20048;-76
2022/12/28 04:20:49;;;;;;;16.35;8.75;;;;;;;;;;5066392;28;20158;-75
2022/12/28 04:23:15;;;;;;;20.85;8.75;;;;;;;;;;5063242;28;20136;-75
2022/12/28 04:25:41;;;;;;;23.15;9.77;;;;;;;;;;5067487;28;20574;-75
2022/12/28 04:28:07;;;;;;;18.98;8.48;;;;;;;;;;5061472;28;20135;-75
2022/12/28 04:30:33;;;;;;;17.88;8.50;;;;;;;;;;5066538;28;20071;-75
2022/12/28 04:32:59;;;;;;;21.63;8.75;;;;;;;;;;5068056;28;20119;-75
2022/12/28 04:35:25;;;;;;;23.58;8.38;;;;;;;;;;5061107;28;20761;-75
2022/12/28 04:37:51;;;;;;;15.05;8.00;;;;;;;;;;5068960;28;20057;-75
2022/12/28 04:40:17;;;;;;;23.90;8.98;;;;;;;;;;5063563;28;20166;-75
2022/12/28 04:42:43;;;;;;;12.27;6.13;;;;;;;;;;5064046;28;20361;-75
2022/12/28 04:45:09;;;;;;;21.80;8.48;;;;;;;;;;5065116;28;20517;-76
2022/12/28 04:47:38;;;;;;;16.65;7.78;;;;;;;;;;5066376;28;20075;-76
2022/12/28 04:50:04;;;;;;;15.48;7.43;;;;;;;;;;5063821;28;20098;-75
2022/12/28 04:52:30;;;;;;;16.83;8.57;;;;;;;;;;5066537;28;20049;-75
2022/12/28 04:54:56;;;;;;;16.75;7.03;;;;;;;;;;5067246;28;20127;-75
2022/12/28 04:57:22;;;;;;;17.40;7.75;;;;;;;;;;5065288;28;20113;-76
2022/12/28 04:59:48;;;;;;;17.50;7.15;;;;;;;;;;5061680;28;20041;-76
2022/12/28 05:02:14;;;;;;;17.30;7.68;;;;;;;;;;5066684;28;20048;-76
2022/12/28 05:04:40;;;;;;;17.50;7.00;;;;;;;;;;5062110;28;20051;-76
2022/12/28 05:07:06;;;;;;;16.70;7.07;;;;;;;;;;5067728;28;20045;-76
2022/12/28 05:09:32;;;;;;;18.83;7.25;;;;;;;;;;5067330;28;20600;-76
2022/12/28 05:11:58;;;;;;;18.17;6.45;;;;;;;;;;5066972;28;20139;-76
2022/12/28 05:14:24;;;;;;;14.45;6.38;;;;;;;;;;5066882;28;20062;-76
2022/12/28 05:16:51;;;;;;;24.00;7.28;;;;;;;;;;5062996;28;20118;-76
2022/12/28 05:19:17;;;;;;;18.35;6.80;;;;;;;;;;5066064;28;20068;-76
2022/12/28 05:21:43;;;;;;;17.42;6.55;;;;;;;;;;5061913;28;20049;-76
2022/12/28 05:24:09;;;;;;;16.38;6.10;;;;;;;;;;5067774;28;20455;-76
2022/12/28 05:26:35;;;;;;;14.82;6.20;;;;;;;;;;5065155;28;20037;-76
2022/12/28 05:29:01;;;;;;;13.52;5.43;;;;;;;;;;5068411;28;20049;-76
2022/12/28 05:31:27;;;;;;;12.23;5.07;;;;;;;;;;5063559;28;20048;-76
2022/12/28 05:33:53;;;;;;;11.48;5.05;;;;;;;;;;5066134;28;20052;-76
2022/12/28 05:36:23;;;;;;;10.60;4.70;;;;;;;;;;5067624;28;20488;-76
2022/12/28 05:38:49;;;;;;;10.15;4.13;;;;;;;;;;5064246;28;20048;-77
2022/12/28 05:41:20;;;;;;;11.77;5.35;;;;;;;;;;5068734;28;20049;-76
2022/12/28 05:43:46;;;;;;;13.88;5.03;;;;;;;;;;5070633;28;20488;-76
2022/12/28 05:46:18;;;;;;;15.43;5.28;;;;;;;;;;5066029;28;20044;-76
2022/12/28 05:48:44;;;;;;;14.68;4.78;;;;;;;;;;5069391;28;20033;-76
2022/12/28 05:51:14;;;;;;;11.30;4.40;;;;;;;;;;5062644;28;20393;-76
2022/12/28 05:53:41;;;;;;;14.15;5.15;;;;;;;;;;5056853;28;20052;-75
2022/12/28 05:56:12;;;;;;;11.00;4.47;;;;;;;;;;5064632;28;20051;-75
2022/12/28 05:58:38;;;;;;;16.85;5.18;;;;;;;;;;5065633;28;20411;-76
2022/12/28 06:01:05;;;;;;;12.82;4.80;;;;;;;;;;5067793;28;20508;-76
2022/12/28 06:03:31;;;;;;;15.70;4.88;;;;;;;;;;5069536;28;20053;-76
2022/12/28 06:05:57;;;;;;;11.55;3.92;;;;;;;;;;5065786;28;20051;-75
2022/12/28 06:08:23;;;;;;;11.63;4.47;;;;;;;;;;5060115;28;20397;-76
2022/12/28 06:10:49;;;;;;;14.68;5.35;;;;;;;;;;5066747;28;20106;-75
2022/12/28 06:13:15;;;;;;;13.27;5.40;;;;;;;;;;5068110;28;20125;-76
2022/12/28 06:15:41;;;;;;;13.52;4.75;;;;;;;;;;5064174;28;20040;-76
2022/12/28 06:18:10;;;;;;;12.95;4.38;;;;;;;;;;5063021;28;20302;-75
2022/12/28 06:20:36;;;;;;;15.05;4.90;;;;;;;;;;5061518;28;20405;-76
2022/12/28 06:23:02;;;;;;;13.07;4.85;;;;;;;;;;5068608;28;20096;-76
2022/12/28 06:25:27;;;;;;;22.48;6.03;;;;;;;;;;5064631;28;20455;-76
2022/12/28 06:27:53;;;;;;;15.77;4.82;;;;;;;;;;5066371;28;20063;-75
2022/12/28 06:30:20;;;;;;;21.13;5.57;;;;;;;;;;5065566;28;20040;-76
2022/12/28 06:32:46;;;;;;;13.60;5.22;;;;;;;;;;5070556;28;20041;-76
2022/12/28 06:35:14;;;;;;;21.40;6.20;;;;;;;;;;5066512;28;20450;-76
2022/12/28 06:37:40;;;;;;;13.43;4.70;;;;;;;;;;5069871;28;20062;-76
2022/12/28 06:40:06;;;;;;;22.38;5.78;;;;;;;;;;5061659;28;20052;-76
2022/12/28 06:42:32;;;;;;;17.17;5.65;;;;;;;;;;5064492;28;20045;-76
2022/12/28 06:44:58;;;;;;;24.00;6.10;;;;;;;;;;5069901;28;20032;-76
2022/12/28 06:47:24;;;;;;;20.42;6.35;;;;;;;;;;5067315;28;20506;-76
2022/12/28 06:49:53;;;;;;;18.95;5.15;;;;;;;;;;5068329;28;20055;-76
2022/12/28 06:52:19;;;;;;;22.13;6.60;;;;;;;;;;5065510;28;20044;-76
2022/12/28 06:54:45;;;;;;;18.25;4.97;;;;;;;;;;5066105;28;20090;-76
2022/12/28 06:57:11;;;;;;;23.20;6.82;;;;;;;;;;5060110;28;20440;-76
2022/12/28 06:59:37;;;;;;;24.88;6.15;;;;;;;;;;5066809;28;20095;-76
2022/12/28 07:02:03;;;;;;;20.65;5.82;;;;;;;;;;5063383;28;20084;-76
2022/12/28 07:04:29;;;;;;;27.58;7.88;;;;;;;;;;5065906;28;20102;-76
2022/12/28 07:06:55;;;;;;;19.02;6.30;;;;;;;;;;5067611;28;20040;-76
2022/12/28 07:09:21;;;;;;;23.52;5.80;;;;;;;;;;5065794;28;20446;-76
2022/12/28 07:11:50;;;;;;;24.35;5.82;;;;;;;;;;5066480;28;20044;-75
2022/12/28 07:14:16;;;;;;;29.48;6.95;;;;;;;;;;5062416;28;20488;-75
2022/12/28 07:16:42;;;;;;;29.48;7.38;;;;;;;;;;5065402;28;20048;-76
2022/12/28 07:19:08;;;;;;;27.23;7.07;;;;;;;;;;5066451;28;20054;-76
2022/12/28 07:21:35;;;;;;;23.77;5.65;;;;;;;;;;5067737;28;20416;-75
2022/12/28 07:24:02;;;;;;;29.33;6.80;;;;;;;;;;5067067;28;20090;-76
2022/12/28 07:26:29;;;;;;;32.50;6.45;;;;;;;;;;5060683;28;20138;-75
2022/12/28 07:28:57;;;;;;;34.45;7.18;;;;;;;;;;5059903;28;20412;-75
2022/12/28 07:31:24;;;;;;;29.17;6.93;;;;;;;;;;5060556;28;20050;-76
2022/12/28 07:33:51;;;;;;;24.58;6.00;;;;;;;;;;5063576;28;20040;-76
2022/12/28 07:36:18;;;;;;;28.08;6.18;;;;;;;;;;5065383;28;20048;-76
2022/12/28 07:38:44;;;;;;;21.83;5.95;;;;;;;;;;5064897;28;20045;-76
2022/12/28 07:41:14;;;;;;;26.35;6.53;;;;;;;;;;5063079;28;20048;-76
2022/12/28 07:43:41;;;;;;;23.75;6.88;;;;;;;;;;5065713;28;20423;-75
2022/12/28 07:46:14;;;;;;;23.33;7.10;;;;;;;;;;5059927;28;20052;-77
2022/12/28 07:48:41;;;;;;;24.77;7.20;;;;;;;;;;5060995;28;20044;-77
2022/12/28 07:51:07;;;;;;;25.20;6.93;;;;;;;;;;5062424;28;20072;-77
2022/12/28 07:53:33;;;;;;;25.05;8.45;;;;;;;;;;5065264;28;20052;-77
2022/12/28 07:55:59;;;;;;;23.45;7.82;;;;;;;;;;5066104;28;20053;-77
2022/12/28 07:58:25;;;;;;;27.25;8.05;;;;;;;;;;5062430;28;20075;-77
2022/12/28 08:01:00;;;;;;;26.17;6.00;;;;;;;;;;5062600;28;20480;-77
2022/12/28 08:03:26;;;;;;;19.83;4.82;;;;;;;;;;5064844;28;20102;-77
2022/12/28 08:05:52;;;;;;;14.90;3.83;;;;;;;;;;5056612;28;20049;-77
2022/12/28 08:08:18;;;;;;;21.70;3.78;;;;;;;;;;5064483;28;20087;-77
2022/12/28 08:10:44;;;;;;;20.98;3.83;;;;;;;;;;5064394;28;20032;-77
2022/12/28 08:13:10;;;;;;;21.55;3.80;;;;;;;;;;5062402;28;20485;-77
2022/12/28 08:15:36;;;;;;;13.98;3.47;;;;;;;;;;5065362;28;20045;-76
2022/12/28 08:18:02;;;;;;;10.23;2.83;;;;;;;;;;5067539;28;20047;-77
2022/12/28 08:20:28;;;;;;;14.52;3.97;;;;;;;;;;5055710;28;20063;-77
2022/12/28 08:22:57;;;;;;;10.88;3.28;;;;;;;;;;5063725;28;20067;-77
2022/12/28 08:25:23;;;;;;;9.63;3.00;;;;;;;;;;5068698;28;20040;-77
2022/12/28 08:27:49;;;;;;;9.75;3.30;;;;;;;;;;5069832;28;20070;-76
2022/12/28 08:30:17;;;;;;;9.65;3.20;;;;;;;;;;5068818;28;20040;-77
2022/12/28 08:32:43;;;;;;;5.43;2.97;;;;;;;;;;5066318;28;20105;-77
2022/12/28 08:35:09;;;;;;;7.88;3.22;;;;;;;;;;5062947;28;20048;-77
2022/12/28 08:37:36;;;;;;;8.38;2.65;;;;;;;;;;5064732;28;20458;-77
2022/12/28 08:40:02;;;;;;;6.82;3.08;;;;;;;;;;5067961;28;20618;-77
2022/12/28 08:42:28;;;;;;;6.60;2.72;;;;;;;;;;5064922;28;20052;-77
2022/12/28 08:44:54;;;;;;;6.55;3.22;;;;;;;;;;5063797;28;20384;-78
2022/12/28 08:47:20;;;;;;;12.30;7.03;;;;;;;;;;5070784;28;20480;-77
2022/12/28 08:49:47;;;;;;;8.63;3.90;;;;;;;;;;5065237;28;20044;-77
2022/12/28 08:52:13;;;;;;;13.13;4.15;;;;;;;;;;5060942;28;20431;-77
2022/12/28 08:54:39;;;;;;;8.20;3.38;;;;;;;;;;5064582;28;20093;-77
2022/12/28 08:57:05;;;;;;;8.32;3.75;;;;;;;;;;5063431;28;20439;-78
2022/12/28 08:59:31;;;;;;;7.15;3.40;;;;;;;;;;5062073;28;20101;-78
2022/12/28 09:01:57;;;;;;;5.43;2.60;;;;;;;;;;5063761;28;20564;-77
2022/12/28 09:04:23;;;;;;;11.93;3.58;;;;;;;;;;5063346;28;20056;-78
2022/12/28 09:06:50;;;;;;;12.85;4.60;;;;;;;;;;5064103;28;20036;-77
2022/12/28 09:09:18;;;;;;;11.40;4.13;;;;;;;;;;5069513;28;20404;-76
2022/12/28 09:11:44;;;;;;;14.32;5.15;;;;;;;;;;5074635;28;20430;-77
2022/12/28 09:14:11;;;;;;;11.05;5.07;;;;;;;;;;5078262;28;20072;-77
2022/12/28 09:16:38;;;;;;;14.70;5.43;;;;;;;;;;5069177;28;20048;-78
2022/12/28 09:19:08;;;;;;;12.45;4.93;;;;;;;;;;5061459;28;20041;-77
2022/12/28 09:21:36;;;;;;;14.70;4.72;;;;;;;;;;5068683;28;20514;-78
2022/12/28 09:24:02;;;;;;;12.93;4.88;;;;;;;;;;5060758;28;20055;-77
2022/12/28 09:26:33;;;;;;;11.13;3.83;;;;;;;;;;5065781;28;20048;-78
2022/12/28 09:29:00;;;;;;;10.18;4.15;;;;;;;;;;5067080;28;20040;-78
2022/12/28 09:31:31;;;;;;;10.07;3.70;;;;;;;;;;5066037;28;20063;-79
2022/12/28 09:36:33;;;;;;;12.23;6.10;;;;;;;;;;5071085;28;20071;-78
2022/12/28 09:39:01;;;;;;;5.80;3.00;;;;;;;;;;5080425;28;20389;-79
2022/12/28 09:41:41;;;;;;;9.70;2.97;;;;;;;;;;5061287;28;20048;-77
2022/12/28 09:44:14;;;;;;;7.07;2.60;;;;;;;;;;5059132;28;20047;-77
2022/12/28 09:46:42;;;;;;;5.53;2.20;;;;;;;;;;5068708;28;20135;-78
2022/12/28 09:49:14;;;;;;;4.70;2.20;;;;;;;;;;5068324;28;20040;-78
2022/12/28 09:51:45;;;;;;;8.75;2.88;;;;;;;;;;5069371;28;20048;-78
2022/12/28 09:54:11;;;;;;;4.30;2.70;;;;;;;;;;5068165;28;20041;-78
2022/12/28 09:56:39;;;;;;;7.25;2.90;;;;;;;;;;5068887;28;20048;-76
2022/12/28 09:59:06;;;;;;;6.57;3.00;;;;;;;;;;5062205;28;20452;-78
2022/12/28 10:01:37;;;;;;;7.47;3.30;;;;;;;;;;5067072;28;20043;-80
2022/12/28 10:04:03;;;;;;;7.38;3.13;;;;;;;;;;5069700;28;20044;-77
2022/12/28 10:06:34;;;;;;;6.85;3.80;;;;;;;;;;5064649;28;20476;-76
2022/12/28 10:09:01;;;;;;;8.02;3.70;;;;;;;;;;5062818;28;20326;-78
2022/12/28 10:11:29;;;;;;;7.47;4.18;;;;;;;;;;5064479;28;20045;-77
2022/12/28 10:13:59;;;;;;;9.25;4.38;;;;;;;;;;5068699;28;20048;-77
2022/12/28 10:16:28;;;;;;;10.82;4.18;;;;;;;;;;5062589;28;20492;-77
2022/12/28 10:18:54;;;;;;;10.85;4.65;;;;;;;;;;5068010;28;20040;-78
2022/12/28 10:21:25;;;;;;;7.25;4.15;;;;;;;;;;5066778;28;20040;-77
2022/12/28 10:23:53;;;;;;;9.57;4.63;;;;;;;;;;5064142;28;20040;-78
2022/12/28 10:26:20;;;;;;;7.80;4.10;;;;;;;;;;5072233;28;20040;-77
2022/12/28 10:28:57;;;;;;;7.43;4.53;;;;;;;;;;5066713;28;20070;-77
2022/12/28 10:31:33;;;;;;;7.32;4.50;;;;;;;;;;5066568;28;20106;-77
2022/12/28 10:34:00;;;;;;;7.97;5.28;;;;;;;;;;5061494;28;20044;-76
2022/12/28 10:36:31;;;;;;;9.80;5.25;;;;;;;;;;5068231;28;20052;-77
2022/12/28 10:38:58;;;;;;;13.10;6.05;;;;;;;;;;5069671;28;20090;-77
2022/12/28 10:41:32;;;;;;;8.98;5.93;;;;;;;;;;5060200;28;20119;-77
2022/12/28 10:43:58;;;;;;;15.15;7.22;;;;;;;;;;5068466;28;20108;-77
2022/12/28 10:46:24;;;;;;;13.10;7.40;;;;;;;;;;5065881;28;20051;-77
2022/12/28 10:48:55;;;;;;;20.95;9.02;;;;;;;;;;5068527;28;20147;-77
2022/12/28 10:51:22;;;;;;;12.80;6.28;;;;;;;;;;5065911;28;20044;-77
2022/12/28 10:53:50;;;;;;;18.10;7.75;;;;;;;;;;5071661;28;20055;-77
2022/12/28 10:56:20;;;;;;;16.67;7.57;;;;;;;;;;5065282;28;20048;-78
2022/12/28 10:58:47;;;;;;;16.60;7.10;;;;;;;;;;5070306;28;20477;-78
2022/12/28 11:01:13;;;;;;;17.30;7.93;;;;;;;;;;5063399;28;20063;-77
2022/12/28 11:03:44;;;;;;;16.55;7.22;;;;;;;;;;5066610;28;20044;-78
2022/12/28 11:06:10;;;;;;;12.48;7.88;;;;;;;;;;5058965;28;20044;-77
2022/12/28 11:08:38;;;;;;;15.43;7.22;;;;;;;;;;5067309;28;20052;-77
2022/12/28 11:11:04;;;;;;;19.23;7.40;;;;;;;;;;5070513;28;20068;-78
2022/12/28 11:13:31;;;;;;;17.13;7.03;;;;;;;;;;5066984;28;20048;-77
2022/12/28 11:15:57;;;;;;;14.02;6.28;;;;;;;;;;5067833;28;20131;-78
2022/12/28 11:18:23;;;;;;;16.25;6.65;;;;;;;;;;5070513;28;20051;-78
2022/12/28 11:20:50;;;;;;;16.58;6.72;;;;;;;;;;5058842;28;20616;-77
2022/12/28 11:23:21;;;;;;;13.70;6.82;;;;;;;;;;5057691;28;20052;-78
2022/12/28 11:25:48;;;;;;;17.08;6.60;;;;;;;;;;5053296;28;20041;-78
2022/12/28 11:28:19;;;;;;;14.95;6.35;;;;;;;;;;5056877;28;20558;-78
2022/12/28 11:30:48;;;;;;;17.50;6.30;;;;;;;;;;5059245;28;20480;-78
2022/12/28 11:33:32;;;;;;;14.75;6.30;;;;;;;;;;5066089;28;20048;-78
2022/12/28 11:36:00;;;;;;;15.73;6.20;;;;;;;;;;5057139;28;20043;-78
2022/12/28 11:38:39;;;;;;;16.52;6.68;;;;;;;;;;5060164;28;20102;-78
2022/12/28 11:41:06;;;;;;;18.27;5.93;;;;;;;;;;5064024;28;20128;-78
2022/12/28 11:43:49;;;;;;;14.55;6.57;;;;;;;;;;5065823;28;20048;-76
2022/12/28 11:46:21;;;;;;;24.43;6.63;;;;;;;;;;5056295;28;20052;-79
2022/12/28 11:49:10;;;;;;;14.88;5.90;;;;;;;;;;5063097;28;20048;-78
2022/12/28 11:51:36;;;;;;;16.58;8.18;;;;;;;;;;5057498;28;20378;-78
2022/12/28 11:54:25;;;;;;;16.30;6.05;;;;;;;;;;5056739;28;20063;-78
2022/12/28 11:56:51;;;;;;;16.45;6.35;;;;;;;;;;5065795;28;20694;-79
2022/12/28 11:59:23;;;;;;;10.15;6.28;;;;;;;;;;5057546;28;20086;-78
2022/12/28 12:01:50;;;;;;;13.50;5.70;;;;;;;;;;5060625;28;20037;-78
2022/12/28 12:04:18;;;;;;;13.18;5.90;;;;;;;;;;5056348;28;20125;-78
2022/12/28 12:06:44;;;;;;;9.50;4.38;;;;;;;;;;5061703;28;20068;-78
2022/12/28 12:09:22;;;;;;;11.32;4.57;;;;;;;;;;5062824;28;20131;-78
2022/12/28 12:11:50;;;;;;;15.38;5.10;;;;;;;;;;5057900;28;20113;-78
2022/12/28 12:14:18;;;;;;;7.35;4.38;;;;;;;;;;5054947;28;20098;-77
2022/12/28 12:16:49;;;;;;;11.90;4.32;;;;;;;;;;5060774;28;20476;-77
2022/12/28 12:19:35;;;;;;;4.65;3.70;;;;;;;;;;5068385;28;20072;-78
2022/12/28 12:22:06;;;;;;;5.53;3.30;;;;;;;;;;5060490;28;20397;-78
2022/12/28 12:24:36;;;;;;;8.63;3.58;;;;;;;;;;5066531;28;20107;-77
2022/12/28 12:27:14;;;;;;;8.95;3.97;;;;;;;;;;5053611;28;20440;-77
2022/12/28 12:29:43;;;;;;;5.97;3.20;;;;;;;;;;5067437;28;20550;-79
2022/12/28 12:32:23;;;;;;;9.70;3.92;;;;;;;;;;5059952;28;20044;-77
2022/12/28 12:34:51;;;;;;;12.55;3.40;;;;;;;;;;5060494;28;20518;-77
2022/12/28 12:37:20;;;;;;;8.95;3.65;;;;;;;;;;5066819;28;20408;-77
2022/12/28 12:40:05;;;;;;;6.15;3.38;;;;;;;;;;5067878;28;20084;-77
2022/12/28 12:42:49;;;;;;;8.90;3.70;;;;;;;;;;5067606;28;20058;-77
2022/12/28 12:45:18;;;;;;;10.55;3.70;;;;;;;;;;5063531;28;20052;-77
2022/12/28 12:47:44;;;;;;;9.05;3.65;;;;;;;;;;5064132;28;20039;-77
2022/12/28 12:50:16;;;;;;;9.45;4.18;;;;;;;;;;5068546;28;20477;-77
2022/12/28 12:52:53;;;;;;;8.63;4.13;;;;;;;;;;5068095;28;20079;-77
2022/12/28 12:55:26;;;;;;;7.93;4.15;;;;;;;;;;5066543;28;20043;-78
2022/12/28 12:58:04;;;;;;;9.70;4.03;;;;;;;;;;5060606;28;20062;-78
2022/12/28 13:00:43;;;;;;;4.53;2.95;;;;;;;;;;5065402;28;20053;-78
2022/12/28 13:03:30;;;;;;;5.35;3.65;;;;;;;;;;5059253;28;20471;-77
2022/12/28 13:05:57;;;;;;;9.73;3.42;;;;;;;;;;5056103;28;20057;-77
2022/12/28 13:08:26;;;;;;;6.65;3.30;;;;;;;;;;5066168;28;20050;-77
2022/12/28 13:10:52;;;;;;;4.95;3.30;;;;;;;;;;5056024;28;20037;-77
2022/12/28 13:13:24;;;;;;;8.60;3.42;;;;;;;;;;5080059;28;20052;-77
2022/12/28 13:15:50;;;;;;;12.90;4.35;;;;;;;;;;5061590;28;20110;-77
2022/12/28 13:18:17;;;;;;;7.57;3.22;;;;;;;;;;5060352;28;20036;-77
2022/12/28 13:20:54;;;;;;;8.18;2.95;;;;;;;;;;5066152;28;20048;-77
2022/12/28 13:23:21;;;;;;;10.55;3.13;;;;;;;;;;5058020;28;20068;-77
2022/12/28 13:25:49;;;;;;;12.48;2.97;;;;;;;;;;5063274;28;20041;-78
2022/12/28 13:28:20;;;;;;;8.75;3.25;;;;;;;;;;5059866;28;20381;-77
2022/12/28 13:31:05;;;;;;;8.13;3.35;;;;;;;;;;5063523;28;20476;-77
2022/12/28 13:33:31;;;;;;;8.82;3.25;;;;;;;;;;5067266;28;20059;-77
2022/12/28 13:36:09;;;;;;;10.55;3.35;;;;;;;;;;5066292;28;20492;-77
2022/12/28 13:38:35;;;;;;;13.18;4.10;;;;;;;;;;5064497;28;20438;-78
2022/12/28 13:41:02;;;;;;;11.18;3.03;;;;;;;;;;5068192;28;20381;-78
2022/12/28 13:43:28;;;;;;;17.10;6.15;;;;;;;;;;5066599;28;20045;-78
2022/12/28 13:45:57;;;;;;;11.48;3.67;;;;;;;;;;5065316;28;20505;-77
2022/12/28 13:48:23;;;;;;;14.32;4.10;;;;;;;;;;5069381;28;20454;-77
2022/12/28 13:50:51;;;;;;;11.25;3.65;;;;;;;;;;5066318;28;20606;-77
2022/12/28 13:53:19;;;;;;;10.60;3.72;;;;;;;;;;5066313;28;20052;-77
2022/12/28 13:55:48;;;;;;;10.77;3.42;;;;;;;;;;5066815;28;20032;-77
2022/12/28 13:58:23;;;;;;;12.68;3.25;;;;;;;;;;5065708;28;20049;-77
2022/12/28 14:00:50;;;;;;;9.45;3.97;;;;;;;;;;5067642;28;20064;-77
2022/12/28 14:03:17;;;;;;;12.88;3.80;;;;;;;;;;5067610;28;20093;-77
2022/12/28 14:05:46;;;;;;;10.02;3.25;;;;;;;;;;5062149;28;20045;-77
2022/12/28 14:08:12;;;;;;;10.85;3.60;;;;;;;;;;5058407;28;20099;-77
2022/12/28 14:10:39;;;;;;;10.85;3.63;;;;;;;;;;5068350;28;20040;-77
2022/12/28 14:13:06;;;;;;;6.40;3.50;;;;;;;;;;5072816;28;20045;-78
2022/12/28 14:15:34;;;;;;;9.07;3.90;;;;;;;;;;5069893;28;20040;-77
2022/12/28 14:18:00;;;;;;;8.60;4.00;;;;;;;;;;5069218;28;20535;-77
2022/12/28 14:20:26;;;;;;;12.30;5.15;;;;;;;;;;5067139;28;20052;-78
2022/12/28 14:22:52;;;;;;;8.38;4.65;;;;;;;;;;5068166;28;20044;-78
2022/12/28 14:25:21;;;;;;;11.43;5.75;;;;;;;;;;5067556;28;20131;-78
2022/12/28 14:27:58;;;;;;;12.02;6.70;;;;;;;;;;5064012;28;20124;-78
2022/12/28 14:30:29;;;;;;;12.20;6.57;;;;;;;;;;5069269;28;20076;-78
2022/12/28 14:32:55;;;;;;;13.88;6.68;;;;;;;;;;5066355;28;20090;-78
2022/12/28 14:35:25;;;;;;;10.68;6.97;;;;;;;;;;5065173;28;20527;-78
2022/12/28 14:37:56;;;;;;;9.23;6.28;;;;;;;;;;5063948;28;20178;-78
2022/12/28 14:40:25;;;;;;;11.68;6.80;;;;;;;;;;5062902;28;20501;-79
2022/12/28 14:42:53;;;;;;;12.70;7.57;;;;;;;;;;5064458;28;20044;-80
2022/12/28 14:45:41;;;;;;;11.68;7.18;;;;;;;;;;5061454;28;20079;-77
2022/12/28 14:48:40;;;;;;;9.30;6.28;;;;;;;;;;5062229;28;20044;-80
2022/12/28 14:51:18;;;;;;;13.35;7.50;;;;;;;;;;5020849;28;20465;-78
2022/12/28 14:53:44;;;;;;;10.90;7.70;;;;;;;;;;5065038;28;20052;-78
2022/12/28 14:56:12;;;;;;;10.55;7.65;;;;;;;;;;5061933;28;20044;-79
2022/12/28 14:58:44;;;;;;;10.38;7.97;;;;;;;;;;5063374;28;20049;-80
2022/12/28 15:01:10;;;;;;;10.13;7.63;;;;;;;;;;5061565;28;20195;-78
2022/12/28 15:03:49;;;;;;;10.07;6.88;;;;;;;;;;5065331;28;20551;-80